Wellfleet, NE (69170)

7:39 AM CDT on October 02, 2014 (GMT -0500)
North Platte Regional-Bird | Change Station
CLOSE
Current Station
Airport
Location: North Platte,
Elevation: 2776 ft
Nearby Weather Stations

Elev 2776 ft 41.12 °N, 100.67 °W | Updated 46 minutes ago

Mostly Cloudy
Mostly Cloudy
50 °F
Feels Like 50 °F
N
9
Wind Variable Wind from NW

Today
High -- | Low -- °F
--% Chance of Precip.
Yesterday
High -- | Low -- °F
Precip. -- in
7:40 AM 7:23 PM
First Quarter, 58% visible
Pressure 29.96 in
Visibility 10.0 miles
Clouds Overcast 6000 ft
Dew Point 47 °F
Humidity 89%
Rainfall 0.09 in
Snow Depth Not available.
UV 0 out of 12
Pollen .50 out of 12
Air Quality Not available.
Flu Activity Not available.
METAR KLBF 021153Z AUTO 31008KT 10SM OVC060 10/08 A2999 RMK AO2 SLP144 60009 70045 T01000083 10111 20100 51017

More Conditions Fewer Conditions

Pressure 29.96 in
Visibility 10.0 miles
Clouds Overcast 6000 ft
Dew Point 47 °F
Humidity 89%
Rainfall 0.09 in
Snow Depth Not available.
UV 0 out of 12
Pollen .50 out of 12
Air Quality Not available.
Flu Activity Not available.
METAR KLBF 021153Z AUTO 31008KT 10SM OVC060 10/08 A2999 RMK AO2 SLP144 60009 70045 T01000083 10111 20100 51017

More Conditions Fewer Conditions

10-Day Weather Forecast

Almanac

Astronomy

Oct. 02, 2014 Rise Set
Actual Time 7:40 AM CDT 7:23 PM CDT
Civil Twilight 7:13 AM CDT 7:50 PM CDT
Nautical Twilight 6:41 AM CDT 8:22 PM CDT
Astronomical Twilight 6:09 AM CDT 8:54 PM CDT
Moon 3:33 PM CDT 12:57 AM CDT
Length of Visible Light 12h 37m
Length of Day
11h 42m
Tomorrow will be 2m 40s shorter.
First Quarter, 58% of the Moon is Illuminated
Today
First Quarter
Oct 8
Full
Oct 15
Last Quarter
Oct 23
New
Oct 30
First Quarter

Today's Extremes

State Highs State Lows

Community

WunderPhotos

Upload Photos

1,758,223 photos uploaded!

WunderBlogs® & News

Nearby

Snow Depth

Station Depth Elevation
No new snow has been reported.

Earthquake Activity

City Distance Mag. Time & Date
No recent earthquake activity has been reported nearby.
Minimum magnitude displayed is 2.5.

Coastal Water Temperatures

Place Temperature
No Stations Reporting

Nearby Weather Stations